Time;durP1;ratioP1;P1;durP2;ratioP2;P2;SDS_P1;SDS_P2;PMS_P1;PMS_P2;Temp;Humidity;BMP_temperature;BMP_pressure;BME280_temperature;BME280_humidity;BME280_pressure;Samples;Min_cycle;Max_cycle;Signal;HPM_P1;HPM_P2
2023/03/01 00:01:15;;;;;;;31.02;17.10;;;0.10;99.90;;;;;;5028493;28;20049;-70
2023/03/01 00:03:41;;;;;;;30.73;17.42;;;0.10;99.90;;;;;;5024364;28;20037;-70
2023/03/01 00:06:07;;;;;;;35.47;17.42;;;0.10;99.90;;;;;;5028503;28;20060;-70
2023/03/01 00:08:33;;;;;;;33.40;18.25;;;0.10;99.90;;;;;;5028826;28;20042;-70
2023/03/01 00:11:19;;;;;;;31.80;18.88;;;0.10;99.90;;;;;;5025310;28;20046;-70
2023/03/01 00:13:47;;;;;;;32.70;18.23;;;0.10;99.90;;;;;;5026106;28;20045;-70
2023/03/01 00:16:17;;;;;;;28.58;17.20;;;0.00;99.90;;;;;;5022972;28;20042;-70
2023/03/01 00:18:43;;;;;;;37.67;18.40;;;0.00;99.90;;;;;;5027577;28;20565;-70
2023/03/01 00:21:08;;;;;;;32.90;18.48;;;0.00;99.90;;;;;;5029057;28;20041;-69
2023/03/01 00:23:35;;;;;;;35.00;18.73;;;0.00;99.90;;;;;;5027220;28;20426;-70
2023/03/01 00:26:00;;;;;;;45.80;22.25;;;0.00;99.90;;;;;;5031685;28;20130;-69
2023/03/01 00:28:26;;;;;;;37.85;21.50;;;-0.10;99.90;;;;;;5017501;28;20488;-69
2023/03/01 00:30:52;;;;;;;37.92;20.77;;;-0.10;99.90;;;;;;5031081;28;20033;-70
2023/03/01 00:33:18;;;;;;;34.40;18.48;;;0.20;99.90;;;;;;5028364;28;20041;-71
2023/03/01 00:35:44;;;;;;;35.03;18.35;;;-0.10;99.90;;;;;;5025719;28;20390;-70
2023/03/01 00:38:10;;;;;;;33.85;18.13;;;-0.10;99.90;;;;;;5024917;28;20119;-70
2023/03/01 00:40:36;;;;;;;35.03;18.40;;;-0.20;99.90;;;;;;5023039;28;20119;-69
2023/03/01 00:43:02;;;;;;;43.85;20.63;;;-0.20;99.90;;;;;;5018964;28;20049;-69
2023/03/01 00:45:30;;;;;;;39.35;20.25;;;-0.20;99.90;;;;;;5030023;28;20040;-69
2023/03/01 00:47:56;;;;;;;37.42;20.33;;;-0.20;99.90;;;;;;5027960;28;20371;-69
2023/03/01 00:50:23;;;;;;;45.55;22.33;;;-0.20;99.90;;;;;;5032447;28;20044;-70
2023/03/01 00:52:55;;;;;;;40.80;21.02;;;-0.20;99.90;;;;;;5028220;28;20073;-70
2023/03/01 00:55:21;;;;;;;46.55;22.15;;;-0.20;99.90;;;;;;5021952;28;20152;-71
2023/03/01 00:57:47;;;;;;;40.05;21.25;;;-0.20;99.90;;;;;;5025207;28;20041;-70
2023/03/01 01:00:13;;;;;;;45.33;23.23;;;-0.30;99.90;;;;;;5025892;28;20398;-69
2023/03/01 01:02:38;;;;;;;48.35;24.27;;;-0.30;99.90;;;;;;5018092;28;20060;-70
2023/03/01 01:05:04;;;;;;;46.45;24.80;;;-0.30;99.90;;;;;;5031324;28;20080;-69
2023/03/01 01:07:30;;;;;;;47.22;22.23;;;-0.30;99.90;;;;;;5028835;28;20083;-69
2023/03/01 01:09:56;;;;;;;47.20;23.63;;;-0.30;99.90;;;;;;5031274;28;20049;-69
2023/03/01 01:12:21;;;;;;;40.05;21.60;;;-0.30;99.90;;;;;;5030300;28;20037;-69
2023/03/01 01:14:47;;;;;;;41.60;21.77;;;-0.30;99.90;;;;;;5020520;28;20041;-70
2023/03/01 01:17:13;;;;;;;39.22;20.20;;;-0.30;99.90;;;;;;5026302;28;20486;-70
2023/03/01 01:19:38;;;;;;;46.35;22.98;;;-0.40;99.90;;;;;;5030656;28;20037;-70
2023/03/01 01:22:04;;;;;;;51.42;24.40;;;-0.40;99.90;;;;;;5028402;28;20119;-69
2023/03/01 01:24:30;;;;;;;41.00;20.70;;;-0.40;99.90;;;;;;5028733;28;20471;-70
2023/03/01 01:26:56;;;;;;;44.83;23.17;;;-0.40;99.90;;;;;;5030909;28;20425;-69
2023/03/01 01:29:21;;;;;;;49.97;24.95;;;-0.40;99.90;;;;;;5019767;28;20132;-69
2023/03/01 01:31:47;;;;;;;47.72;23.40;;;-0.40;99.90;;;;;;5028172;28;20144;-70
2023/03/01 01:34:19;;;;;;;44.40;23.02;;;-0.40;99.90;;;;;;5022390;28;20042;-70
2023/03/01 01:36:49;;;;;;;55.20;21.90;;;-0.40;99.90;;;;;;5025383;28;20402;-70
2023/03/01 01:39:15;;;;;;;40.50;20.77;;;-0.50;99.90;;;;;;5024036;28;20441;-70
2023/03/01 01:41:42;;;;;;;41.97;20.45;;;-0.50;99.90;;;;;;5046812;28;20435;-70
2023/03/01 01:44:12;;;;;;;42.83;22.52;;;-0.50;99.90;;;;;;5028477;28;20044;-70
2023/03/01 01:46:42;;;;;;;50.35;24.77;;;-0.50;99.90;;;;;;5034654;28;20073;-71
2023/03/01 01:49:24;;;;;;;47.75;24.73;;;-0.50;99.90;;;;;;5035579;28;20041;-71
2023/03/01 01:51:53;;;;;;;53.28;24.65;;;-0.50;99.90;;;;;;5027678;28;20049;-70
2023/03/01 01:54:25;;;;;;;50.13;25.20;;;-0.50;99.90;;;;;;5024436;28;20053;-72
2023/03/01 01:56:56;;;;;;;45.50;23.08;;;-0.50;99.90;;;;;;5034080;28;20490;-70
2023/03/01 01:59:24;;;;;;;47.97;23.98;;;-0.50;99.90;;;;;;5032419;28;20045;-69
2023/03/01 02:01:52;;;;;;;51.58;25.83;;;-0.60;99.90;;;;;;5033635;28;20045;-73
2023/03/01 02:04:17;;;;;;;55.83;25.02;;;-0.60;99.90;;;;;;5024683;28;20114;-69
2023/03/01 02:06:58;;;;;;;52.47;25.20;;;-0.60;99.90;;;;;;5034229;28;20033;-69
2023/03/01 02:09:24;;;;;;;52.95;24.65;;;-0.60;99.90;;;;;;5035059;28;20049;-69
2023/03/01 02:11:51;;;;;;;46.45;23.60;;;-0.60;99.90;;;;;;5034256;28;20390;-70
2023/03/01 02:14:17;;;;;;;52.57;25.23;;;-0.60;99.90;;;;;;5029849;28;20087;-69
2023/03/01 02:16:43;;;;;;;53.42;25.60;;;-0.60;99.90;;;;;;5048875;28;20033;-71
2023/03/01 02:19:18;;;;;;;52.03;25.27;;;-0.60;99.90;;;;;;5026149;28;20131;-69
2023/03/01 02:22:13;;;;;;;47.10;24.80;;;-0.70;99.90;;;;;;5032096;28;20053;-69
2023/03/01 02:25:19;;;;;;;44.70;22.05;;;-0.70;99.90;;;;;;5031703;28;20162;-69
2023/03/01 02:28:05;;;;;;;50.42;23.80;;;-0.70;99.90;;;;;;5027427;28;20046;-70
2023/03/01 02:30:32;;;;;;;48.50;24.35;;;-0.70;99.90;;;;;;5033194;28;20037;-70
2023/03/01 02:33:02;;;;;;;46.53;23.98;;;-0.70;99.90;;;;;;5027027;28;20483;-69
2023/03/01 02:35:38;;;;;;;48.65;25.30;;;-0.70;99.90;;;;;;5034138;28;20045;-70
2023/03/01 02:38:07;;;;;;;52.70;23.73;;;-0.70;99.90;;;;;;5027036;28;20053;-69
2023/03/01 02:40:35;;;;;;;48.00;23.45;;;-0.80;99.90;;;;;;5026004;28;20037;-71
2023/03/01 02:43:04;;;;;;;44.25;23.08;;;-0.80;99.90;;;;;;5029405;28;20475;-69
2023/03/01 02:45:29;;;;;;;46.03;22.60;;;-0.80;99.90;;;;;;5030432;28;20160;-70
2023/03/01 02:47:56;;;;;;;48.17;22.38;;;-0.80;99.90;;;;;;5034576;28;20044;-70
2023/03/01 02:50:41;;;;;;;46.22;20.67;;;-0.80;99.90;;;;;;5033929;28;20037;-69
2023/03/01 02:53:27;;;;;;;46.97;22.15;;;-0.90;99.90;;;;;;5031172;28;20041;-70
2023/03/01 02:55:53;;;;;;;48.03;22.30;;;-0.90;99.90;;;;;;5031699;28;20469;-70
2023/03/01 02:58:19;;;;;;;44.05;21.00;;;-0.70;99.90;;;;;;5030019;28;20065;-70
2023/03/01 03:00:46;;;;;;;41.20;20.10;;;-0.90;99.90;;;;;;5031519;28;20111;-69
2023/03/01 03:03:19;;;;;;;43.05;21.00;;;-0.90;99.90;;;;;;5021820;28;20458;-70
2023/03/01 03:05:45;;;;;;;43.92;20.45;;;-0.90;99.90;;;;;;5030675;28;20037;-70
2023/03/01 03:08:11;;;;;;;38.88;19.17;;;-0.90;99.90;;;;;;5034195;28;20053;-70
2023/03/01 03:10:39;;;;;;;44.42;20.38;;;-1.00;99.90;;;;;;5029642;28;20410;-70
2023/03/01 03:13:13;;;;;;;36.20;18.77;;;-1.00;99.90;;;;;;5031618;28;20443;-69
2023/03/01 03:15:40;;;;;;;42.63;21.77;;;-0.90;99.90;;;;;;5029406;28;20052;-69
2023/03/01 03:18:12;;;;;;;40.05;19.75;;;-0.60;99.90;;;;;;5024048;28;20038;-69
2023/03/01 03:20:40;;;;;;;39.30;20.02;;;-1.00;99.90;;;;;;5032704;28;20372;-69
2023/03/01 03:23:06;;;;;;;35.55;17.50;;;-1.00;99.90;;;;;;5033421;28;20045;-69
2023/03/01 03:25:32;;;;;;;40.20;19.75;;;-1.10;99.90;;;;;;5027553;28;20085;-70
2023/03/01 03:27:58;;;;;;;39.67;19.40;;;-1.10;99.90;;;;;;5029210;28;20041;-70
2023/03/01 03:30:26;;;;;;;40.10;18.00;;;-1.10;99.90;;;;;;5030439;28;20041;-70
2023/03/01 03:32:52;;;;;;;35.28;19.35;;;-1.10;99.90;;;;;;5027453;28;20053;-70
2023/03/01 03:35:26;;;;;;;44.67;21.33;;;-1.20;99.90;;;;;;5032725;28;20053;-69
2023/03/01 03:38:05;;;;;;;42.83;22.55;;;-1.20;99.90;;;;;;5033526;28;20056;-70
2023/03/01 03:40:39;;;;;;;42.33;20.98;;;-1.20;99.90;;;;;;5033790;28;20057;-68
2023/03/01 03:43:07;;;;;;;41.78;21.60;;;-1.20;99.90;;;;;;5029511;28;20171;-69
2023/03/01 03:45:33;;;;;;;44.42;21.23;;;-1.20;99.90;;;;;;5033987;28;20041;-69
2023/03/01 03:48:04;;;;;;;41.00;20.42;;;-1.20;99.90;;;;;;5033388;28;20107;-69
2023/03/01 03:50:29;;;;;;;37.97;20.90;;;-1.20;99.90;;;;;;5031574;28;20044;-68
2023/03/01 03:52:55;;;;;;;39.30;20.88;;;-1.20;99.90;;;;;;5032609;28;20045;-69
2023/03/01 03:55:21;;;;;;;41.83;20.50;;;-1.20;99.90;;;;;;5048608;28;20037;-69
2023/03/01 03:57:51;;;;;;;40.97;20.27;;;-1.20;99.90;;;;;;5028791;28;20041;-69
2023/03/01 04:00:18;;;;;;;37.90;19.63;;;-1.20;99.90;;;;;;5027277;28;20117;-69
2023/03/01 04:02:44;;;;;;;40.47;20.90;;;-1.20;99.90;;;;;;5027080;28;20117;-69
2023/03/01 04:05:12;;;;;;;42.10;21.92;;;-1.30;99.90;;;;;;5027371;28;20172;-70
2023/03/01 04:07:38;;;;;;;46.08;23.50;;;-1.10;99.90;;;;;;5021396;28;20400;-70
2023/03/01 04:10:07;;;;;;;41.35;21.75;;;-1.30;99.90;;;;;;5031264;28;20045;-69
2023/03/01 04:12:36;;;;;;;48.22;22.23;;;-1.20;99.90;;;;;;5028593;28;20037;-68
2023/03/01 04:15:12;;;;;;;47.70;21.42;;;-1.20;99.90;;;;;;5032800;28;20049;-69
2023/03/01 04:17:45;;;;;;;37.78;18.33;;;-1.30;99.90;;;;;;5025248;28;20103;-69
2023/03/01 04:20:14;;;;;;;34.88;19.05;;;-1.20;99.90;;;;;;5023188;28;20042;-69
2023/03/01 04:22:40;;;;;;;36.20;18.25;;;-1.20;99.90;;;;;;5023626;28;20054;-69
2023/03/01 04:25:07;;;;;;;33.97;17.23;;;-1.20;99.90;;;;;;5025291;28;20100;-69
2023/03/01 04:27:34;;;;;;;29.65;15.18;;;-1.20;99.90;;;;;;5027209;28;20132;-70
2023/03/01 04:30:00;;;;;;;25.50;13.38;;;-1.20;99.90;;;;;;5031433;28;20034;-69
2023/03/01 04:32:25;;;;;;;19.67;11.32;;;-1.20;99.90;;;;;;5032056;28;20391;-69
2023/03/01 04:34:51;;;;;;;18.10;10.63;;;-1.10;99.90;;;;;;5032593;28;20040;-69
2023/03/01 04:37:16;;;;;;;18.25;10.57;;;-1.20;99.90;;;;;;5032847;28;20402;-69
2023/03/01 04:39:45;;;;;;;17.02;10.10;;;-1.30;99.90;;;;;;5030556;28;20054;-69
2023/03/01 04:42:20;;;;;;;16.63;10.13;;;-1.40;99.90;;;;;;5034810;28;20049;-69
2023/03/01 04:44:45;;;;;;;15.75;9.57;;;-1.50;99.90;;;;;;5038471;28;20045;-69
2023/03/01 04:47:12;;;;;;;13.98;8.63;;;-1.50;99.90;;;;;;5031539;28;20347;-69
2023/03/01 04:49:38;;;;;;;12.65;8.25;;;-1.60;99.90;;;;;;5032445;28;20038;-69
2023/03/01 04:52:04;;;;;;;12.85;9.05;;;-1.70;99.90;;;;;;5031609;28;20052;-69
2023/03/01 04:54:32;;;;;;;11.32;7.93;;;-1.70;99.90;;;;;;5031798;28;20041;-69
2023/03/01 04:56:58;;;;;;;12.65;8.10;;;-1.70;99.90;;;;;;5028236;28;20045;-69
2023/03/01 04:59:24;;;;;;;14.32;8.30;;;-1.80;99.90;;;;;;5025318;28;20052;-69
2023/03/01 05:01:51;;;;;;;12.60;8.82;;;-1.80;99.90;;;;;;5032358;28;20033;-68
2023/03/01 05:04:16;;;;;;;12.27;8.57;;;-1.80;99.90;;;;;;5032593;28;20047;-69
2023/03/01 05:06:42;;;;;;;15.35;9.45;;;-1.90;99.90;;;;;;5030464;28;20034;-69
2023/03/01 05:09:08;;;;;;;12.98;8.70;;;-1.90;99.90;;;;;;5029673;28;20045;-70
2023/03/01 05:11:35;;;;;;;14.05;8.88;;;-2.00;99.90;;;;;;5013510;28;20389;-69
2023/03/01 05:14:08;;;;;;;15.57;10.10;;;-1.90;99.90;;;;;;5024504;28;20052;-69
2023/03/01 05:16:35;;;;;;;15.20;9.60;;;-2.00;99.90;;;;;;5029357;28;20049;-69
2023/03/01 05:19:11;;;;;;;14.75;9.43;;;-2.00;99.90;;;;;;5030095;28;20081;-69
2023/03/01 05:22:01;;;;;;;14.52;9.90;;;-2.10;99.90;;;;;;5026974;28;20046;-69
2023/03/01 05:24:24;;;;;;;18.85;11.60;;;-2.10;99.90;;;;;;5034843;28;20050;-69
2023/03/01 05:26:51;;;;;;;16.65;9.80;;;-2.10;99.90;;;;;;5037791;28;20482;-69
2023/03/01 05:29:24;;;;;;;14.60;9.95;;;-2.10;99.90;;;;;;5034738;28;20042;-68
2023/03/01 05:31:55;;;;;;;19.17;10.73;;;-2.20;99.90;;;;;;5030151;28;20402;-70
2023/03/01 05:34:35;;;;;;;16.98;10.18;;;-2.20;99.90;;;;;;5030356;28;20052;-70
2023/03/01 05:37:01;;;;;;;17.15;10.75;;;-2.20;99.90;;;;;;5030065;28;20049;-69
2023/03/01 05:39:29;;;;;;;16.80;10.65;;;-2.20;99.90;;;;;;5035032;28;20045;-68
2023/03/01 05:42:00;;;;;;;16.10;10.85;;;-2.20;99.90;;;;;;5033043;28;20071;-68
2023/03/01 05:44:27;;;;;;;19.15;10.75;;;-2.20;99.90;;;;;;5034014;28;20034;-68
2023/03/01 05:46:52;;;;;;;18.45;11.82;;;-2.20;99.90;;;;;;5036042;28;20048;-69
2023/03/01 05:49:18;;;;;;;17.58;11.85;;;-2.20;99.90;;;;;;5031868;28;20046;-69
2023/03/01 05:51:49;;;;;;;18.90;12.40;;;-2.20;99.90;;;;;;5034218;28;20037;-70
2023/03/01 05:54:15;;;;;;;17.88;11.75;;;-2.20;99.90;;;;;;5034516;28;20044;-70
2023/03/01 05:56:40;;;;;;;18.13;11.80;;;-2.20;99.90;;;;;;5035655;28;20038;-69
2023/03/01 05:59:06;;;;;;;20.23;11.95;;;-2.20;99.90;;;;;;5024491;28;20049;-69
2023/03/01 06:01:32;;;;;;;21.40;12.45;;;-2.20;99.90;;;;;;5029396;28;20042;-69
2023/03/01 06:03:58;;;;;;;24.45;12.38;;;-2.20;99.90;;;;;;5036250;28;20060;-69
2023/03/01 06:06:24;;;;;;;19.95;11.75;;;-2.20;99.90;;;;;;5032387;28;20042;-70
2023/03/01 06:08:50;;;;;;;20.23;13.07;;;-2.20;99.90;;;;;;5033634;28;20041;-70
2023/03/01 06:11:16;;;;;;;21.88;13.85;;;-2.20;99.90;;;;;;5023856;28;20045;-68
2023/03/01 06:13:43;;;;;;;23.50;14.02;;;-2.20;99.90;;;;;;5035048;28;20045;-69
2023/03/01 06:16:09;;;;;;;20.38;12.20;;;-2.20;99.90;;;;;;5032549;28;20045;-69
2023/03/01 06:18:35;;;;;;;19.38;12.75;;;-2.20;99.90;;;;;;5034519;28;20045;-69
2023/03/01 06:21:01;;;;;;;23.17;13.98;;;-2.20;99.90;;;;;;5022599;28;20368;-70
2023/03/01 06:23:26;;;;;;;22.45;13.05;;;-2.20;99.90;;;;;;5027007;28;20037;-70
2023/03/01 06:25:52;;;;;;;21.83;13.00;;;-2.20;99.90;;;;;;5033377;28;20042;-69
2023/03/01 06:28:18;;;;;;;20.95;12.80;;;-2.20;99.90;;;;;;5059585;28;20076;-70
2023/03/01 06:30:44;;;;;;;20.48;12.50;;;-2.20;99.90;;;;;;5034215;28;20356;-68
2023/03/01 06:33:09;;;;;;;19.17;11.93;;;-2.20;99.90;;;;;;5030935;28;20123;-69
2023/03/01 06:35:35;;;;;;;21.40;12.77;;;-2.20;99.90;;;;;;5030592;28;20038;-69
2023/03/01 06:38:03;;;;;;;20.88;12.98;;;-2.20;99.90;;;;;;5034227;28;20487;-69
2023/03/01 06:40:31;;;;;;;20.75;12.40;;;-2.20;99.90;;;;;;5034329;28;20049;-69
2023/03/01 06:42:57;;;;;;;22.15;13.43;;;-2.20;99.90;;;;;;5034407;28;20117;-69
2023/03/01 06:45:24;;;;;;;19.40;12.07;;;-2.20;99.90;;;;;;5031416;28;20064;-69
2023/03/01 06:47:50;;;;;;;21.88;12.70;;;-2.10;99.90;;;;;;5024422;28;20508;-68
2023/03/01 06:50:17;;;;;;;25.05;14.10;;;-2.10;99.90;;;;;;5030375;28;20120;-68
2023/03/01 06:52:44;;;;;;;22.75;13.73;;;-2.10;99.90;;;;;;5029093;28;20045;-70
2023/03/01 06:55:11;;;;;;;25.17;14.48;;;-2.00;99.90;;;;;;5016851;28;20068;-68
2023/03/01 06:57:37;;;;;;;24.17;14.35;;;-2.00;99.90;;;;;;5022989;28;20427;-68
2023/03/01 07:00:04;;;;;;;30.23;16.08;;;-1.90;99.90;;;;;;5028901;28;20072;-67
2023/03/01 07:02:29;;;;;;;24.80;13.77;;;-1.90;99.90;;;;;;5025258;28;20507;-68
2023/03/01 07:04:55;;;;;;;27.58;15.68;;;-1.90;99.90;;;;;;5025978;28;20050;-68
2023/03/01 07:07:21;;;;;;;27.73;15.60;;;-1.90;99.90;;;;;;5020744;28;20041;-68
2023/03/01 07:09:48;;;;;;;25.70;15.40;;;-1.80;99.90;;;;;;5027936;28;20048;-69
2023/03/01 07:12:14;;;;;;;26.20;14.60;;;-1.80;99.90;;;;;;5026190;28;20087;-68
2023/03/01 07:14:39;;;;;;;26.00;15.45;;;-1.70;99.90;;;;;;5030833;28;20487;-68
2023/03/01 07:17:05;;;;;;;26.98;16.80;;;-1.70;99.90;;;;;;5032473;28;20037;-68
2023/03/01 07:19:30;;;;;;;31.42;17.85;;;-1.60;99.90;;;;;;5029263;28;20129;-68
2023/03/01 07:21:56;;;;;;;26.80;16.20;;;-1.60;99.90;;;;;;5028655;28;20045;-68
2023/03/01 07:24:22;;;;;;;32.20;17.27;;;-1.50;99.90;;;;;;5027563;28;20069;-68
2023/03/01 07:26:51;;;;;;;29.48;16.63;;;-1.40;99.90;;;;;;5029308;28;20121;-68
2023/03/01 07:29:17;;;;;;;32.08;18.20;;;-1.30;99.90;;;;;;5029143;28;20037;-68
2023/03/01 07:31:44;;;;;;;30.63;16.75;;;-1.20;99.90;;;;;;5026104;28;20497;-68
2023/03/01 07:34:10;;;;;;;29.17;17.38;;;-1.10;99.90;;;;;;5031256;28;20042;-68
2023/03/01 07:36:36;;;;;;;36.55;19.63;;;-1.00;99.90;;;;;;5028372;28;20399;-68
2023/03/01 07:39:02;;;;;;;35.10;19.33;;;-0.90;99.90;;;;;;5026626;28;20107;-68
2023/03/01 07:41:29;;;;;;;36.35;19.20;;;-0.80;99.90;;;;;;5029919;28;20467;-68
2023/03/01 07:43:55;;;;;;;35.13;20.58;;;-0.80;99.90;;;;;;5032339;28;20520;-68
2023/03/01 07:46:21;;;;;;;37.13;18.65;;;-0.60;99.90;;;;;;5033498;28;20054;-68
2023/03/01 07:48:46;;;;;;;41.35;21.38;;;-0.50;99.90;;;;;;5033467;28;20041;-68
2023/03/01 07:51:13;;;;;;;35.30;19.92;;;-0.40;99.90;;;;;;5032300;28;20048;-68
2023/03/01 07:53:38;;;;;;;37.10;20.65;;;-0.20;99.90;;;;;;5032601;28;20033;-68
2023/03/01 07:56:10;;;;;;;38.00;21.63;;;0.00;99.90;;;;;;5029241;28;20048;-68
2023/03/01 07:58:38;;;;;;;38.53;22.63;;;0.10;99.90;;;;;;5033483;28;20076;-68
2023/03/01 08:01:05;;;;;;;44.60;23.60;;;0.20;99.90;;;;;;5033872;28;20603;-69
2023/03/01 08:03:31;;;;;;;45.05;24.85;;;0.40;99.90;;;;;;5030362;28;20509;-70
2023/03/01 08:05:59;;;;;;;36.75;22.48;;;0.60;99.90;;;;;;5031857;28;20041;-69
2023/03/01 08:08:25;;;;;;;39.85;23.25;;;0.70;99.90;;;;;;5031686;28;20038;-69
2023/03/01 08:10:51;;;;;;;40.33;23.45;;;0.80;99.90;;;;;;5030836;28;20044;-69
2023/03/01 08:13:22;;;;;;;37.95;22.45;;;1.00;99.90;;;;;;5033390;28;20478;-69
2023/03/01 08:15:51;;;;;;;43.50;23.33;;;1.20;99.90;;;;;;5028097;28;20163;-69
2023/03/01 08:18:18;;;;;;;40.15;23.52;;;1.30;99.90;;;;;;5031931;28;20045;-69
2023/03/01 08:20:44;;;;;;;49.58;26.67;;;1.40;99.90;;;;;;5030823;28;20041;-69
2023/03/01 08:23:10;;;;;;;49.33;27.88;;;1.50;99.90;;;;;;5032813;28;20041;-69
2023/03/01 08:25:36;;;;;;;47.25;25.20;;;1.60;99.90;;;;;;5031471;28;20096;-69
2023/03/01 08:28:02;;;;;;;48.03;25.55;;;1.70;99.90;;;;;;5033119;28;20069;-69
2023/03/01 08:30:27;;;;;;;48.05;27.88;;;1.90;99.90;;;;;;5032530;28;20124;-70
2023/03/01 08:32:53;;;;;;;50.67;27.52;;;2.10;99.90;;;;;;5030767;28;20080;-69
2023/03/01 08:35:19;;;;;;;49.83;27.08;;;2.30;99.90;;;;;;5032506;28;20041;-69
2023/03/01 08:37:45;;;;;;;48.00;28.08;;;2.50;99.90;;;;;;5031592;28;20049;-69
2023/03/01 08:40:13;;;;;;;48.38;27.23;;;2.60;99.90;;;;;;5032883;28;20513;-69
2023/03/01 08:42:39;;;;;;;50.88;28.00;;;2.70;99.90;;;;;;5017149;28;20045;-69
2023/03/01 08:45:05;;;;;;;44.10;27.15;;;2.80;99.90;;;;;;5030398;28;20474;-69
2023/03/01 08:47:33;;;;;;;54.75;30.15;;;2.80;99.90;;;;;;5031340;28;20045;-69
2023/03/01 08:49:59;;;;;;;47.53;28.83;;;2.90;99.90;;;;;;5031984;28;20056;-69
2023/03/01 08:52:25;;;;;;;48.17;27.30;;;3.00;99.90;;;;;;5019505;28;20037;-69
2023/03/01 08:54:51;;;;;;;47.20;29.10;;;3.10;99.90;;;;;;5030937;28;20056;-69
2023/03/01 08:57:17;;;;;;;44.65;26.35;;;3.20;99.90;;;;;;5024948;28;20053;-69
2023/03/01 08:59:43;;;;;;;48.78;27.65;;;3.30;99.90;;;;;;5032229;28;20042;-69
2023/03/01 09:02:14;;;;;;;51.35;28.65;;;3.40;99.90;;;;;;5024238;28;20406;-69
2023/03/01 09:04:40;;;;;;;44.95;27.30;;;3.70;99.90;;;;;;5027359;28;20077;-69
2023/03/01 09:07:06;;;;;;;42.20;26.42;;;3.80;99.90;;;;;;5023418;28;20071;-69
2023/03/01 09:09:32;;;;;;;45.13;26.02;;;4.00;99.90;;;;;;5030654;28;20088;-69
2023/03/01 09:11:58;;;;;;;44.42;26.88;;;4.20;99.90;;;;;;5032205;28;20127;-69
2023/03/01 09:14:24;;;;;;;48.47;26.88;;;4.30;99.90;;;;;;5032515;28;20033;-70
2023/03/01 09:16:49;;;;;;;43.83;26.45;;;4.50;99.90;;;;;;5023780;28;20034;-69
2023/03/01 09:19:15;;;;;;;39.45;25.88;;;4.70;99.90;;;;;;5026988;28;20429;-69
2023/03/01 09:21:41;;;;;;;47.63;25.77;;;4.90;99.90;;;;;;5014185;28;20046;-69
2023/03/01 09:24:13;;;;;;;41.40;24.95;;;5.00;99.90;;;;;;5024338;28;20050;-69
2023/03/01 09:26:39;;;;;;;40.63;25.38;;;5.20;99.90;;;;;;5023638;28;20079;-69
2023/03/01 09:29:04;;;;;;;42.15;24.33;;;5.30;99.90;;;;;;5020810;28;20084;-69
2023/03/01 09:31:30;;;;;;;38.33;23.83;;;5.50;99.90;;;;;;5024728;28;20085;-70
2023/03/01 09:33:55;;;;;;;44.58;27.60;;;5.60;99.90;;;;;;5030216;28;20050;-70
2023/03/01 09:36:25;;;;;;;45.97;26.65;;;5.80;99.90;;;;;;5031978;28;20121;-69
2023/03/01 09:38:52;;;;;;;37.85;22.27;;;5.90;99.90;;;;;;5030502;28;20060;-69
2023/03/01 09:41:25;;;;;;;36.50;20.95;;;6.10;99.90;;;;;;5024055;28;20042;-69
2023/03/01 09:43:57;;;;;;;29.95;19.75;;;6.10;99.90;;;;;;5031414;28;20045;-69
2023/03/01 09:46:25;;;;;;;30.98;20.17;;;6.20;99.90;;;;;;5031087;28;20176;-69
2023/03/01 09:48:57;;;;;;;28.40;17.67;;;6.30;99.90;;;;;;5028462;28;20038;-69
2023/03/01 09:51:34;;;;;;;35.75;19.40;;;6.50;99.90;;;;;;5028255;28;20375;-69
2023/03/01 09:54:04;;;;;;;30.70;18.95;;;6.60;99.90;;;;;;5028995;28;20037;-69
2023/03/01 09:56:37;;;;;;;27.75;17.13;;;6.90;99.90;;;;;;5029266;28;20452;-69
2023/03/01 09:59:03;;;;;;;26.70;18.23;;;7.00;99.90;;;;;;5026120;28;20071;-69
2023/03/01 10:01:43;;;;;;;25.23;15.90;;;7.20;99.90;;;;;;5026148;28;20037;-69
2023/03/01 10:04:41;;;;;;;26.50;17.67;;;7.20;99.90;;;;;;5026188;28;20033;-70
2023/03/01 10:07:09;;;;;;;25.25;15.45;;;7.50;99.90;;;;;;5030911;28;20088;-70
2023/03/01 10:09:46;;;;;;;23.98;16.70;;;7.90;99.90;;;;;;5032089;28;20045;-70
2023/03/01 10:12:18;;;;;;;22.88;16.05;;;8.10;99.90;;;;;;5034893;28;20045;-70
2023/03/01 10:14:43;;;;;;;22.95;16.73;;;8.30;99.90;;;;;;5034183;28;20068;-70
2023/03/01 10:17:37;;;;;;;24.58;16.55;;;8.50;99.90;;;;;;5024319;28;20049;-70
2023/03/01 10:20:22;;;;;;;25.23;17.45;;;8.70;99.90;;;;;;5022595;28;20058;-70
2023/03/01 10:22:52;;;;;;;22.80;16.45;;;8.50;99.90;;;;;;5032718;28;20128;-70
2023/03/01 10:25:47;;;;;;;26.20;17.70;;;8.80;99.90;;;;;;5035271;28;20072;-70
2023/03/01 10:28:38;;;;;;;25.83;16.90;;;9.00;99.90;;;;;;5021528;28;20053;-70
2023/03/01 10:31:04;;;;;;;22.02;14.77;;;9.20;99.90;;;;;;5030865;28;20128;-69
2023/03/01 10:33:39;;;;;;;21.27;14.70;;;9.20;99.90;;;;;;5021099;28;20041;-69
2023/03/01 10:36:05;;;;;;;22.08;13.88;;;9.60;99.90;;;;;;5033656;28;20045;-69
2023/03/01 10:38:52;;;;;;;22.20;15.13;;;9.90;99.90;;;;;;5032786;28;20537;-70
2023/03/01 10:41:18;;;;;;;20.67;15.40;;;10.10;99.90;;;;;;5032813;28;20045;-70
2023/03/01 10:43:53;;;;;;;22.13;15.63;;;10.30;99.90;;;;;;5034218;28;20064;-69
2023/03/01 10:46:36;;;;;;;19.17;14.77;;;10.30;99.90;;;;;;5031112;28;20041;-69
2023/03/01 10:49:22;;;;;;;21.63;16.00;;;10.50;99.90;;;;;;5032481;28;20045;-69
2023/03/01 10:51:50;;;;;;;20.58;15.93;;;10.40;99.90;;;;;;5017434;28;20483;-69
2023/03/01 10:54:27;;;;;;;18.88;13.68;;;10.40;99.90;;;;;;5031730;28;20049;-70
2023/03/01 10:57:01;;;;;;;19.63;13.93;;;10.50;99.90;;;;;;5022850;28;20045;-70
2023/03/01 10:59:31;;;;;;;21.98;13.30;;;10.70;99.90;;;;;;5024927;28;20046;-70
2023/03/01 11:02:20;;;;;;;21.63;14.98;;;10.60;99.90;;;;;;5022835;28;20056;-69
2023/03/01 11:05:03;;;;;;;20.42;15.00;;;10.70;99.90;;;;;;5030318;28;20451;-70
2023/03/01 11:07:29;;;;;;;19.42;14.77;;;10.70;99.90;;;;;;5025789;28;20049;-70
2023/03/01 11:09:55;;;;;;;17.85;14.25;;;10.80;99.90;;;;;;5017369;28;20157;-70
2023/03/01 11:12:21;;;;;;;21.50;14.32;;;10.90;99.90;;;;;;5032918;28;20096;-70
2023/03/01 11:14:55;;;;;;;19.88;14.02;;;11.00;99.90;;;;;;5028359;28;20038;-70
2023/03/01 11:17:28;;;;;;;16.10;13.18;;;10.90;99.90;;;;;;5030127;28;20395;-69
2023/03/01 11:20:26;;;;;;;17.50;13.82;;;10.80;99.60;;;;;;5032849;28;20390;-70
2023/03/01 11:23:06;;;;;;;16.60;12.95;;;11.00;99.90;;;;;;5029146;28;20088;-70
2023/03/01 11:25:36;;;;;;;18.48;14.60;;;11.20;99.30;;;;;;5030796;28;20048;-70
2023/03/01 11:28:04;;;;;;;18.55;13.60;;;11.50;98.50;;;;;;5032964;28;20049;-70
2023/03/01 11:30:55;;;;;;;16.23;12.75;;;11.40;99.90;;;;;;5031023;28;20338;-70
2023/03/01 11:33:44;;;;;;;18.27;13.30;;;11.30;98.20;;;;;;5029818;28;20029;-70
2023/03/01 11:36:17;;;;;;;;;;;11.70;99.40;;;;;;5030578;28;20042;-70
2023/03/01 11:38:43;;;;;;;14.95;11.75;;;11.50;96.70;;;;;;5030408;28;19967;-70
2023/03/01 11:41:19;;;;;;;14.00;11.13;;;11.40;98.10;;;;;;5031558;28;20054;-71
2023/03/01 11:44:00;;;;;;;15.48;11.00;;;11.50;97.50;;;;;;5029247;28;20116;-71
2023/03/01 11:46:31;;;;;;;14.68;9.88;;;11.70;96.30;;;;;;5027146;28;20042;-70
2023/03/01 11:49:22;;;;;;;15.02;10.38;;;11.60;96.10;;;;;;5032973;28;20063;-71
2023/03/01 11:52:05;;;;;;;16.50;11.60;;;12.10;95.80;;;;;;5032113;28;20435;-70
2023/03/01 11:54:43;;;;;;;13.35;11.05;;;12.20;95.00;;;;;;5014002;28;20092;-70
2023/03/01 11:57:38;;;;;;;17.63;10.82;;;11.60;95.30;;;;;;5023830;28;20223;-69
2023/03/01 12:00:23;;;;;;;15.10;11.10;;;10.80;95.30;;;;;;5029937;28;20053;-69
2023/03/01 12:03:08;;;;;;;14.88;11.50;;;10.00;97.20;;;;;;5030332;28;20038;-70
2023/03/01 12:05:48;;;;;;;16.88;11.30;;;9.50;97.70;;;;;;5033499;28;20094;-70
2023/03/01 12:08:33;;;;;;;14.57;11.13;;;9.20;99.60;;;;;;5030579;28;20045;-70
2023/03/01 12:11:23;;;;;;;17.27;10.77;;;9.10;98.30;;;;;;5033706;28;20084;-70
2023/03/01 12:14:11;;;;;;;14.15;10.98;;;9.40;97.80;;;;;;5032764;28;20092;-70
2023/03/01 12:17:14;;;;;;;16.13;11.13;;;9.50;96.90;;;;;;5032263;28;20044;-69
2023/03/01 12:19:50;;;;;;;16.92;10.57;;;9.50;97.20;;;;;;5018827;28;20061;-70
2023/03/01 12:22:32;;;;;;;14.70;11.10;;;9.90;97.40;;;;;;5030772;28;20506;-69
2023/03/01 12:25:37;;;;;;;16.65;11.65;;;10.20;96.60;;;;;;5021729;28;20505;-69
2023/03/01 12:28:12;;;;;;;19.23;13.27;;;10.50;95.90;;;;;;5031966;28;20057;-69
2023/03/01 12:30:58;;;;;;;17.58;11.75;;;10.70;96.80;;;;;;5032022;28;20065;-70
2023/03/01 12:33:52;;;;;;;14.13;9.65;;;11.00;96.20;;;;;;5031880;28;20048;-70
2023/03/01 12:36:35;;;;;;;15.07;11.02;;;10.40;93.50;;;;;;5032682;28;20445;-70
2023/03/01 12:39:22;;;;;;;14.20;11.05;;;9.70;95.30;;;;;;5031365;28;20533;-70
2023/03/01 12:42:11;;;;;;;16.23;9.93;;;9.30;96.40;;;;;;5030491;28;20230;-69
2023/03/01 12:44:55;;;;;;;17.88;11.73;;;8.90;97.10;;;;;;5031268;28;20045;-69
2023/03/01 12:47:30;;;;;;;15.75;11.65;;;8.30;98.40;;;;;;5031918;28;20095;-69